Time;durP1;ratioP1;P1;durP2;ratioP2;P2;SDS_P1;SDS_P2;PMS_P1;PMS_P2;Temp;Humidity;BMP_temperature;BMP_pressure;BME280_temperature;BME280_humidity;BME280_pressure;Samples;Min_cycle;Max_cycle;Signal;HPM_P1;HPM_P2
2023/09/16 00:06:15;;;;;;;6.90;3.50;;;;;;;12.42;64.74;100667.25;30974402;28;97618;-66
2023/09/16 00:21:16;;;;;;;6.40;3.30;;;;;;;12.30;65.79;100666.78;30972348;28;96728;-64
2023/09/16 00:36:16;;;;;;;5.90;3.60;;;;;;;12.13;66.23;100647.28;30970501;28;96966;-66
2023/09/16 00:51:17;;;;;;;7.50;3.95;;;;;;;11.99;66.83;100647.97;30969916;28;96800;-64
2023/09/16 01:06:18;;;;;;;6.68;3.47;;;;;;;11.87;67.57;100658.13;30969567;28;97338;-68
2023/09/16 01:21:22;;;;;;;6.57;3.47;;;;;;;11.81;67.76;100654.28;30966990;28;97180;-66
2023/09/16 01:36:26;;;;;;;6.20;3.30;;;;;;;11.75;68.47;100646.09;30965474;28;97729;-66
2023/09/16 01:51:27;;;;;;;8.10;3.87;;;;;;;11.65;69.21;100640.94;30962831;28;97114;-65
2023/09/16 02:06:27;;;;;;;6.47;3.58;;;;;;;11.54;69.12;100631.44;30963113;28;99168;-64
2023/09/16 02:21:28;;;;;;;5.95;3.35;;;;;;;11.43;69.28;100626.44;30962028;28;96773;-64
2023/09/16 02:36:28;;;;;;;5.75;3.58;;;;;;;11.28;70.25;100628.91;30961657;28;97130;-64
2023/09/16 02:51:31;;;;;;;7.43;3.60;;;;;;;11.13;70.80;100610.03;30959651;28;97176;-64
2023/09/16 03:06:31;;;;;;;9.83;3.50;;;;;;;10.98;70.68;100608.00;30971989;28;97589;-64
2023/09/16 03:21:32;;;;;;;6.53;3.83;;;;;;;10.89;71.31;100602.81;30980020;28;97374;-65
2023/09/16 03:36:32;;;;;;;6.47;3.72;;;;;;;10.80;71.33;100594.78;30975975;28;96785;-64
2023/09/16 03:51:34;;;;;;;6.88;3.70;;;;;;;10.77;71.87;100587.13;30973840;28;97492;-64
2023/09/16 04:06:34;;;;;;;7.83;4.00;;;;;;;10.72;72.36;100586.75;30971840;28;97039;-64
2023/09/16 04:21:35;;;;;;;7.03;4.20;;;;;;;10.68;71.71;100582.75;30966178;28;97026;-65
2023/09/16 04:36:35;;;;;;;5.85;4.18;;;;;;;10.70;72.90;100582.59;30968493;28;96908;-64
2023/09/16 04:51:35;;;;;;;6.32;3.92;;;;;;;10.96;72.44;100594.00;30967744;28;97190;-64
2023/09/16 05:06:36;;;;;;;9.55;4.05;;;;;;;11.40;72.79;100598.25;30966124;28;96780;-64
2023/09/16 05:21:36;;;;;;;8.05;3.92;;;;;;;12.07;72.70;100591.88;30963897;28;97220;-72
2023/09/16 05:36:37;;;;;;;9.25;4.00;;;;;;;12.78;72.00;100597.31;30963784;28;97044;-64
2023/09/16 05:51:37;;;;;;;7.82;3.42;;;;;;;13.49;70.84;100591.03;30961581;28;97052;-66
2023/09/16 06:06:38;;;;;;;11.23;4.05;;;;;;;14.11;70.07;100600.69;30960734;28;97043;-64
2023/09/16 06:21:38;;;;;;;6.13;3.67;;;;;;;15.00;69.29;100591.75;30958821;28;97595;-64
2023/09/16 06:36:41;;;;;;;7.60;3.30;;;;;;;16.02;68.25;100579.03;30964850;28;97339;-66
2023/09/16 06:51:41;;;;;;;8.53;3.87;;;;;;;16.91;65.32;100588.19;30978574;28;97201;-64
2023/09/16 07:06:42;;;;;;;5.95;3.95;;;;;;;17.45;63.10;100603.63;30975563;28;98508;-64
2023/09/16 07:21:42;;;;;;;7.43;3.30;;;;;;;17.92;62.30;100591.84;30975331;28;97466;-64
2023/09/16 07:36:42;;;;;;;5.68;3.47;;;;;;;18.51;60.99;100601.88;30973730;28;97104;-70
2023/09/16 07:51:45;;;;;;;5.13;3.40;;;;;;;20.07;56.89;100596.13;30973525;28;97707;-64
2023/09/16 08:06:49;;;;;;;7.50;3.70;;;;;;;21.85;55.15;100584.19;30971109;28;96894;-72
2023/09/16 08:21:52;;;;;;;5.57;2.63;;;;;;;23.14;51.86;100559.69;30969262;28;97249;-65
2023/09/16 08:36:52;;;;;;;5.23;2.60;;;;;;;25.67;46.44;100563.66;30968494;28;97411;-64
2023/09/16 08:51:54;;;;;;;6.88;2.83;;;;;;;34.51;32.69;100558.03;30966453;28;97467;-67
2023/09/16 09:06:56;;;;;;;11.90;2.60;;;;;;;40.23;23.45;100551.44;30964410;28;97493;-66
2023/09/16 09:21:57;;;;;;;4.10;2.40;;;;;;;42.21;21.29;100533.94;31071875;28;97515;-66
2023/09/16 09:36:57;;;;;;;3.80;2.23;;;;;;;45.92;17.49;100538.38;30964956;28;97492;-68
2023/09/16 09:51:58;;;;;;;4.40;2.35;;;;;;;48.81;15.14;100517.16;30961013;28;96927;-67
2023/09/16 10:07:00;;;;;;;5.55;2.42;;;;;;;50.41;13.29;100499.75;30958915;28;97282;-64
2023/09/16 10:22:00;;;;;;;3.43;2.37;;;;;;;49.58;12.58;100477.91;30959560;28;97534;-66
2023/09/16 10:37:01;;;;;;;3.50;2.13;;;;;;;53.17;10.93;100474.72;30958239;28;97286;-65
2023/09/16 10:52:09;;;;;;;5.68;2.15;;;;;;;56.04;8.84;100455.03;30956746;28;97571;-70
2023/09/16 11:07:10;;;;;;;5.30;2.00;;;;;;;55.87;9.35;100436.63;30956455;28;97476;-67
2023/09/16 11:22:12;;;;;;;3.63;2.10;;;;;;;57.96;7.90;100428.84;30960944;28;97296;-65
2023/09/16 11:37:13;;;;;;;3.60;1.60;;;;;;;59.57;7.32;100416.88;30975002;28;97403;-65
2023/09/16 11:52:14;;;;;;;3.63;1.80;;;;;;;59.44;6.97;100397.97;30971203;28;97259;-63
2023/09/16 12:07:15;;;;;;;2.70;1.80;;;;;;;59.90;6.69;100375.34;30972044;28;97333;-66
2023/09/16 12:22:16;;;;;;;2.90;1.52;;;;;;;58.58;6.84;100354.44;30971515;28;97582;-67
2023/09/16 12:37:21;;;;;;;2.50;1.40;;;;;;;56.26;8.17;100334.69;30968723;28;97422;-73
2023/09/16 12:52:21;;;;;;;2.80;1.77;;;;;;;49.48;11.06;100318.44;30968001;28;97384;-70
2023/09/16 13:07:22;;;;;;;3.67;2.40;;;;;;;38.55;19.32;100310.06;30966535;28;97362;-64
2023/09/16 13:22:22;;;;;;;4.25;2.10;;;;;;;33.61;24.47;100297.56;30964038;28;97409;-66
2023/09/16 13:37:22;;;;;;;4.13;2.33;;;;;;;31.36;27.41;100284.53;30963533;28;97158;-64
2023/09/16 13:52:23;;;;;;;54.72;22.02;;;;;;;29.85;29.75;100283.91;30960303;28;97604;-67
2023/09/16 14:07:23;;;;;;;6.40;2.80;;;;;;;28.86;31.64;100278.00;30960313;28;97485;-73
2023/09/16 14:22:29;;;;;;;3.80;2.50;;;;;;;28.63;32.88;100266.72;30959564;28;97160;-66
2023/09/16 14:37:29;;;;;;;2.97;2.10;;;;;;;27.99;34.18;100257.63;30957988;28;98194;-71
2023/09/16 14:52:30;;;;;;;4.68;2.78;;;;;;;27.14;35.51;100260.25;30954716;28;97487;-71
2023/09/16 15:07:30;;;;;;;4.57;2.50;;;;;;;26.50;36.61;100254.41;30977357;28;96772;-66
2023/09/16 15:22:32;;;;;;;5.38;2.47;;;;;;;25.87;38.01;100246.44;30975910;28;96691;-66
2023/09/16 15:37:32;;;;;;;3.67;2.40;;;;;;;25.34;39.30;100227.50;30973864;28;97108;-64
2023/09/16 15:52:32;;;;;;;5.38;2.65;;;;;;;24.86;40.40;100218.56;30973515;28;96849;-65
2023/09/16 16:07:33;;;;;;;5.95;2.80;;;;;;;24.40;41.46;100229.97;30971586;28;97546;-69
2023/09/16 16:22:33;;;;;;;4.63;2.67;;;;;;;23.92;42.67;100225.25;30970183;28;96974;-66
2023/09/16 16:37:34;;;;;;;5.40;3.58;;;;;;;23.45;43.79;100215.78;30969361;28;97219;-71
2023/09/16 16:52:34;;;;;;;;;;;;;;;22.96;44.98;100230.13;30968804;28;97503;-64
2023/09/16 17:07:35;;;;;;;6.00;4.63;;;;;;;22.39;46.62;100224.94;30967045;28;97527;-72
2023/09/16 17:22:35;;;;;;;6.63;4.53;;;;;;;21.88;48.19;100225.72;30964084;28;97145;-72
2023/09/16 17:37:36;;;;;;;10.53;4.10;;;;;;;21.43;49.73;100245.47;30962759;28;97628;-72
2023/09/16 17:52:36;;;;;;;5.17;3.80;;;;;;;21.06;50.96;100254.75;30962049;28;97136;-73
2023/09/16 18:07:37;;;;;;;7.03;4.33;;;;;;;20.70;52.13;100253.97;30961857;28;97077;-69
2023/09/16 18:22:37;;;;;;;4.35;3.55;;;;;;;20.41;53.36;100261.94;30959803;28;99488;-69
2023/09/16 18:37:38;;;;;;;5.57;4.63;;;;;;;20.20;53.63;100286.81;30958405;28;97497;-68
2023/09/16 18:52:38;;;;;;;13.68;8.27;;;;;;;19.89;55.23;100292.25;30957239;28;97059;-71
2023/09/16 19:07:38;;;;;;;8.38;4.55;;;;;;;19.55;56.41;100289.16;30956186;28;97511;-66
2023/09/16 19:22:39;;;;;;;10.25;7.10;;;;;;;19.34;57.30;100289.59;30954692;28;96727;-73
2023/09/16 19:37:39;;;;;;;8.60;5.60;;;;;;;19.04;58.11;100290.34;30957378;28;97372;-65
2023/09/16 19:52:40;;;;;;;8.13;4.68;;;;;;;18.71;59.30;100277.97;30972884;28;98557;-68
2023/09/16 20:07:40;;;;;;;8.15;4.95;;;;;;;18.48;60.26;100278.59;30972890;28;97070;-70
2023/09/16 20:22:41;;;;;;;7.65;5.57;;;;;;;18.29;60.85;100288.50;30971169;28;96827;-66
2023/09/16 20:37:41;;;;;;;6.68;5.50;;;;;;;18.06;62.27;100282.66;30970019;28;97247;-65
2023/09/16 20:52:42;;;;;;;12.68;5.95;;;;;;;17.90;63.01;100272.34;30967663;28;96804;-65
2023/09/16 21:07:42;;;;;;;10.80;6.20;;;;;;;17.68;63.99;100266.47;30968743;28;97280;-65
2023/09/16 21:22:42;;;;;;;9.48;6.57;;;;;;;17.48;64.81;100272.78;30966942;28;97312;-65
2023/09/16 21:37:43;;;;;;;9.18;6.80;;;;;;;17.30;65.70;100267.25;30965937;28;97366;-71
2023/09/16 21:52:45;;;;;;;11.10;7.15;;;;;;;17.14;66.36;100261.31;30964617;28;97176;-71
2023/09/16 22:07:45;;;;;;;10.87;7.17;;;;;;;17.03;66.97;100261.94;30963731;28;97381;-67
2023/09/16 22:22:45;;;;;;;11.45;7.85;;;;;;;16.96;67.91;100259.25;30962769;28;96750;-69
2023/09/16 22:37:46;;;;;;;10.20;7.80;;;;;;;16.71;68.33;100259.09;30961608;28;97606;-65
2023/09/16 22:52:46;;;;;;;10.15;7.68;;;;;;;16.60;69.22;100257.03;30902261;28;97734;-65
2023/09/16 23:07:46;;;;;;;11.77;7.63;;;;;;;16.55;69.74;100258.50;30836136;28;97085;-64
2023/09/16 23:22:47;;;;;;;12.93;9.50;;;;;;;16.58;69.94;100266.13;30847182;28;97229;-65
2023/09/16 23:37:47;;;;;;;15.48;11.27;;;;;;;16.45;69.82;100257.25;30854496;28;96680;-64
2023/09/16 23:52:48;;;;;;;11.27;8.80;;;;;;;16.20;70.65;100261.38;30853181;28;96785;-64
